This is the latest recevied weather packets stored in our database for station/object WA6OOO. If no packets are shown the sender has not sent any weather packets the latest 10 day(s).
| Time | Temp. | Humidity | Pressure | Rain* | Wind** | Luminosity | Snow |
|---|---|---|---|---|---|---|---|
| 1788033106 | 26.11° C | 69% | 1015.9 hPa | 0 mm | - | 234 W/m² | - |
| 1788032806 | 26.67° C | 68% | 1016 hPa | 0 mm | - | 344 W/m² | - |
| 1788032500 | 26.11° C | 67% | 1016.3 hPa | 0 mm | - | 1000 W/m² | - |
| 1788032196 | 26.67° C | 67% | 1016.4 hPa | 0 mm | - | 536 W/m² | - |
| 1788031892 | 27.22° C | 65% | 1016.3 hPa | 0 mm | - | 473 W/m² | - |
| 1788031592 | 26.67° C | 66% | 1016.3 hPa | 0 mm | - | 837 W/m² | - |
| 1788031291 | 26.11° C | 66% | 1016.4 hPa | 0 mm | - | 530 W/m² | - |
| 1788030990 | 25.56° C | 69% | 1016.4 hPa | 0 mm | - | 435 W/m² | - |
| 1788030690 | 25.56° C | 68% | 1016.6 hPa | 0 mm | - | 435 W/m² | - |
| 1788030385 | 26.11° C | 67% | 1016.7 hPa | 0 mm | - | 372 W/m² | - |
| 1788030081 | 26.67° C | 66% | 1016.6 hPa | 0 mm | - | 347 W/m² | - |
| 1788029780 | 27.22° C | 63% | 1016.2 hPa | 0 mm | - | 346 W/m² | - |
| 1788029475 | 27.78° C | 61% | 1016.3 hPa | 0 mm | - | 537 W/m² | - |
| 1788029174 | 28.33° C | 60% | 1016.1 hPa | 0 mm | - | 965 W/m² | - |
| 1788028869 | 28.33° C | 62% | 1016.1 hPa | 0 mm | - | 505 W/m² | - |
| 1788028567 | 28.33° C | 62% | 1016.2 hPa | 0 mm | - | 505 W/m² | - |
| 1788028259 | 28.33° C | 62% | 1016.2 hPa | 0 mm | - | 505 W/m² | - |
| 1788027954 | 28.33° C | 62% | 1016.1 hPa | 0 mm | - | 505 W/m² | - |
| 1788027649 | 28.33° C | 62% | 1016.2 hPa | 0 mm | - | 505 W/m² | - |
| 1788027344 | 28.33° C | 62% | 1015.9 hPa | 0 mm | - | 505 W/m² | - |
| 1788027044 | 28.33° C | 61% | 1016.2 hPa | 0 mm | - | 570 W/m² | - |
| 1788026743 | 27.78° C | 62% | 1016.1 hPa | 0 mm | - | 572 W/m² | - |
| 1788026440 | 27.78° C | 62% | 1016.1 hPa | 0 mm | - | 234 W/m² | - |
| 1788026134 | 27.78° C | 62% | 1016.3 hPa | 0 mm | - | 328 W/m² | - |
| 1788025832 | 27.78° C | 62% | 1016.1 hPa | 0 mm | - | 407 W/m² | - |
* Rain latest hour (hover to see other rain measurements)
** Current wind speed in m/s (hover to see current wind gust speed)